createdAt,value
2023-08-29T00:01:05.740Z,85.99
2023-08-29T00:04:07.987Z,87.48
2023-08-29T00:07:10.226Z,88.47
2023-08-29T00:10:12.642Z,87.75
2023-08-29T00:13:14.744Z,87.38
2023-08-29T00:16:17.944Z,86.31
2023-08-29T00:19:22.616Z,85.58
2023-08-29T00:22:24.824Z,85.82
2023-08-29T00:25:26.891Z,85.52
2023-08-29T00:28:28.997Z,85.54
2023-08-29T00:31:31.158Z,85.66
2023-08-29T00:34:33.293Z,85.34
2023-08-29T00:37:35.399Z,86.42
2023-08-29T00:40:37.562Z,87.60
2023-08-29T00:43:39.898Z,88.75
2023-08-29T00:46:42.655Z,90.55
2023-08-29T00:49:45.016Z,90.90
2023-08-29T00:52:48.185Z,90.46
2023-08-29T00:55:50.904Z,90.61
2023-08-29T00:58:54.186Z,90.49
2023-08-29T01:01:56.481Z,89.95
2023-08-29T01:04:59.272Z,89.87
2023-08-29T01:08:02.587Z,89.57
2023-08-29T01:11:07.713Z,89.77
2023-08-29T01:14:15.619Z,89.71
2023-08-29T01:17:27.173Z,89.56
2023-08-29T01:20:32.065Z,89.43
2023-08-29T01:23:44.415Z,91.78
2023-08-29T01:26:47.709Z,91.74
2023-08-29T01:29:50.397Z,93.47
2023-08-29T01:32:53.502Z,93.64
2023-08-29T01:35:55.707Z,95.43
2023-08-29T01:38:57.780Z,95.53
2023-08-29T01:41:59.845Z,96.40
2023-08-29T01:45:02.035Z,96.91
2023-08-29T01:48:05.647Z,96.80
2023-08-29T01:51:08.315Z,98.74
2023-08-29T01:54:10.641Z,97.69
2023-08-29T01:57:15.413Z,100.00
2023-08-29T02:00:17.879Z,100.00
2023-08-29T02:03:23.071Z,99.73
2023-08-29T02:06:25.171Z,100.00
2023-08-29T02:09:27.292Z,100.00
2023-08-29T02:12:29.409Z,100.00
2023-08-29T02:15:31.547Z,100.00
2023-08-29T02:18:33.633Z,100.00
2023-08-29T02:21:35.775Z,100.00
2023-08-29T02:24:37.834Z,100.00
2023-08-29T02:27:39.995Z,100.00
2023-08-29T02:30:42.209Z,100.00
2023-08-29T02:33:44.594Z,100.00
2023-08-29T02:36:46.766Z,100.00
2023-08-29T02:39:48.844Z,100.00
2023-08-29T02:42:50.962Z,100.00
2023-08-29T02:45:52.967Z,100.00
2023-08-29T02:48:55.092Z,100.00
2023-08-29T02:51:58.059Z,100.00
2023-08-29T02:55:00.336Z,100.00
2023-08-29T02:58:02.493Z,100.00
2023-08-29T03:01:07.574Z,100.00
2023-08-29T03:04:09.762Z,100.00
2023-08-29T03:07:11.870Z,100.00
2023-08-29T03:10:13.944Z,100.00
2023-08-29T03:13:16.164Z,100.00
2023-08-29T03:16:20.957Z,100.00
2023-08-29T03:19:23.086Z,100.00
2023-08-29T03:22:25.229Z,100.00
2023-08-29T03:25:27.359Z,100.00
2023-08-29T03:28:29.640Z,100.00
2023-08-29T03:31:31.871Z,100.00
2023-08-29T03:34:34.756Z,100.00
2023-08-29T03:37:36.933Z,100.00
2023-08-29T03:40:38.987Z,100.00
2023-08-29T03:43:41.084Z,100.00
2023-08-29T03:46:43.306Z,100.00
2023-08-29T03:49:45.384Z,100.00
2023-08-29T03:52:47.476Z,100.00
2023-08-29T03:55:49.522Z,100.00
2023-08-29T03:58:51.632Z,100.00
2023-08-29T04:01:53.684Z,100.00
2023-08-29T04:05:12.298Z,100.00
2023-08-29T04:08:14.715Z,100.00
2023-08-29T04:11:16.797Z,100.00
2023-08-29T04:14:18.857Z,100.00
2023-08-29T04:17:20.938Z,100.00
2023-08-29T04:20:24.270Z,100.00
2023-08-29T04:23:27.205Z,100.00
2023-08-29T04:26:30.052Z,100.00
2023-08-29T04:29:32.179Z,100.00
2023-08-29T04:32:35.708Z,100.00
2023-08-29T04:35:37.861Z,100.00
2023-08-29T04:38:40.040Z,100.00
2023-08-29T04:41:42.135Z,100.00
2023-08-29T04:44:46.484Z,100.00
2023-08-29T04:47:50.287Z,100.00
2023-08-29T04:50:52.383Z,100.00
2023-08-29T04:53:54.455Z,100.00
2023-08-29T04:56:56.649Z,100.00
2023-08-29T04:59:58.813Z,100.00
2023-08-29T05:03:01.132Z,100.00
2023-08-29T05:06:03.506Z,100.00
2023-08-29T05:09:10.206Z,100.00
2023-08-29T05:12:12.356Z,100.00
2023-08-29T05:15:14.573Z,100.00
2023-08-29T05:18:16.774Z,100.00
2023-08-29T05:21:19.043Z,100.00
2023-08-29T05:24:21.179Z,100.00
2023-08-29T05:27:23.293Z,100.00
2023-08-29T05:30:25.553Z,100.00
2023-08-29T05:33:27.766Z,99.80
2023-08-29T05:36:29.872Z,99.78
2023-08-29T05:39:32.054Z,100.00
2023-08-29T05:42:34.213Z,100.00
2023-08-29T05:45:36.484Z,100.00
2023-08-29T05:48:38.894Z,99.63
2023-08-29T05:51:41.088Z,99.20
2023-08-29T05:54:44.576Z,98.81
2023-08-29T05:57:46.710Z,99.13
2023-08-29T06:00:49.753Z,99.58
2023-08-29T06:03:52.005Z,98.85
2023-08-29T06:06:55.455Z,98.26
2023-08-29T06:09:57.537Z,98.01
2023-08-29T06:12:59.886Z,97.97
2023-08-29T06:16:02.003Z,97.53
2023-08-29T06:19:04.019Z,97.18
2023-08-29T06:22:06.219Z,96.99
2023-08-29T06:25:08.973Z,96.54
2023-08-29T06:28:11.127Z,96.21
2023-08-29T06:31:13.243Z,95.93
2023-08-29T06:34:15.395Z,95.89
2023-08-29T06:37:17.516Z,94.45
2023-08-29T06:40:19.673Z,93.72
2023-08-29T06:43:21.909Z,93.05
2023-08-29T06:46:24.437Z,91.95
2023-08-29T06:49:26.659Z,91.18
2023-08-29T06:52:28.820Z,90.06
2023-08-29T06:55:33.979Z,89.39
2023-08-29T06:58:36.180Z,88.51
2023-08-29T07:01:41.470Z,87.45
2023-08-29T07:04:43.658Z,85.97
2023-08-29T07:07:45.680Z,83.40
2023-08-29T07:10:49.509Z,80.34
2023-08-29T07:13:51.879Z,77.56
2023-08-29T07:20:09.960Z,74.10
2023-08-29T07:23:12.179Z,74.52
2023-08-29T07:26:14.254Z,73.42
2023-08-29T07:29:16.434Z,72.10
2023-08-29T07:32:19.035Z,69.51
2023-08-29T07:35:21.104Z,68.01
2023-08-29T07:38:23.308Z,65.42
2023-08-29T07:41:25.456Z,66.09
2023-08-29T07:44:27.679Z,65.29
2023-08-29T07:47:29.920Z,65.83
2023-08-29T07:50:32.153Z,65.65
2023-08-29T07:53:34.260Z,64.02
2023-08-29T07:56:36.354Z,64.12
2023-08-29T07:59:38.501Z,62.90
2023-08-29T08:02:40.838Z,62.23
2023-08-29T08:05:43.010Z,63.31
2023-08-29T08:08:45.104Z,61.55
2023-08-29T08:11:47.808Z,60.80
2023-08-29T08:14:51.916Z,60.88
2023-08-29T08:17:54.040Z,60.94
2023-08-29T08:20:56.328Z,59.02
2023-08-29T08:23:58.345Z,59.73
2023-08-29T08:27:00.519Z,58.89
2023-08-29T08:30:03.071Z,58.23
2023-08-29T08:33:06.397Z,57.72
2023-08-29T08:36:09.125Z,56.63
2023-08-29T08:39:11.651Z,55.27
2023-08-29T08:42:16.404Z,55.05
2023-08-29T08:45:20.607Z,50.93
2023-08-29T08:48:22.960Z,51.20
2023-08-29T08:51:28.288Z,52.81
2023-08-29T08:54:30.541Z,53.71
2023-08-29T08:57:33.285Z,56.05
2023-08-29T09:00:35.451Z,55.85
2023-08-29T09:03:37.556Z,56.04
2023-08-29T09:06:39.814Z,57.40
2023-08-29T09:09:41.917Z,53.41
2023-08-29T09:12:49.726Z,54.63
2023-08-29T09:15:52.011Z,54.01
2023-08-29T09:18:54.136Z,53.18
2023-08-29T09:21:57.009Z,52.06
2023-08-29T09:25:04.367Z,49.25
2023-08-29T09:28:12.049Z,48.61
2023-08-29T09:31:15.697Z,51.17
2023-08-29T09:34:44.402Z,47.27
2023-08-29T09:37:54.618Z,46.86
2023-08-29T09:40:56.833Z,48.56
2023-08-29T09:43:59.128Z,45.46
2023-08-29T09:47:01.468Z,41.19
2023-08-29T09:50:04.412Z,38.91
2023-08-29T09:53:07.204Z,39.43
2023-08-29T09:56:11.332Z,41.49
2023-08-29T09:59:18.360Z,43.48
2023-08-29T10:02:22.368Z,45.88
2023-08-29T10:05:33.705Z,43.45
2023-08-29T10:08:44.936Z,41.35
2023-08-29T10:11:54.977Z,41.93
2023-08-29T10:14:58.782Z,41.40
2023-08-29T10:18:01.153Z,43.61
2023-08-29T10:21:05.281Z,43.22
2023-08-29T10:24:08.907Z,43.34
2023-08-29T10:27:11.606Z,41.09
2023-08-29T10:30:13.995Z,40.33
2023-08-29T10:33:16.519Z,38.72
2023-08-29T10:36:18.813Z,39.65
2023-08-29T10:39:20.987Z,42.76
2023-08-29T10:42:23.102Z,44.17
2023-08-29T10:45:44.676Z,47.60
2023-08-29T10:48:47.514Z,49.31
2023-08-29T10:52:09.705Z,49.51
2023-08-29T10:55:23.800Z,49.76
2023-08-29T10:58:36.176Z,49.49
2023-08-29T11:01:40.766Z,43.85
2023-08-29T11:04:55.775Z,42.21
2023-08-29T11:08:23.447Z,40.48
2023-08-29T11:11:25.756Z,40.49
2023-08-29T11:14:54.915Z,38.75
2023-08-29T11:18:33.817Z,39.71
2023-08-29T11:21:36.001Z,37.09
2023-08-29T11:24:38.226Z,36.22
2023-08-29T11:27:40.587Z,32.81
2023-08-29T11:30:44.907Z,32.09
2023-08-29T11:33:48.174Z,31.44
2023-08-29T11:36:52.774Z,31.82
2023-08-29T11:39:56.815Z,33.22
2023-08-29T11:43:26.042Z,33.44
2023-08-29T11:46:23.181Z,33.65
2023-08-29T11:49:26.507Z,34.92
2023-08-29T11:52:28.663Z,36.96
2023-08-29T11:55:33.154Z,40.04
2023-08-29T11:58:36.706Z,39.95
2023-08-29T12:01:38.835Z,41.72
2023-08-29T12:04:42.663Z,42.93
2023-08-29T12:07:45.429Z,45.51
2023-08-29T12:10:53.376Z,43.06
2023-08-29T12:14:06.681Z,39.50
2023-08-29T12:17:09.257Z,43.68
2023-08-29T12:20:17.080Z,48.01
2023-08-29T12:23:31.349Z,49.54
2023-08-29T12:26:33.730Z,50.97
2023-08-29T12:29:35.865Z,50.51
2023-08-29T12:32:37.923Z,50.55
2023-08-29T12:35:40.348Z,49.64
2023-08-29T12:38:42.463Z,50.43
2023-08-29T12:41:44.781Z,50.36
2023-08-29T12:44:47.020Z,49.19
2023-08-29T12:47:49.456Z,48.47
2023-08-29T12:50:51.569Z,49.70
2023-08-29T12:53:53.725Z,51.29
2023-08-29T12:56:56.428Z,49.82
2023-08-29T12:59:58.519Z,51.28
2023-08-29T13:03:01.557Z,52.05
2023-08-29T13:06:04.102Z,51.62
2023-08-29T13:09:06.355Z,50.92
2023-08-29T13:12:08.950Z,52.02
2023-08-29T13:15:13.742Z,52.77
2023-08-29T13:18:15.799Z,55.39
2023-08-29T13:21:17.865Z,57.79
2023-08-29T13:24:20.034Z,61.46
2023-08-29T13:27:22.165Z,63.19
2023-08-29T13:30:26.968Z,65.21
2023-08-29T13:33:29.039Z,68.13
2023-08-29T13:36:32.642Z,66.70
2023-08-29T13:39:34.741Z,67.63
2023-08-29T13:42:37.306Z,68.71
2023-08-29T13:45:39.639Z,63.85
2023-08-29T13:48:42.113Z,59.56
2023-08-29T13:51:46.617Z,56.97
2023-08-29T13:54:48.815Z,58.67
2023-08-29T13:57:51.317Z,58.22
2023-08-29T14:00:54.963Z,57.33
2023-08-29T14:03:57.773Z,56.91
2023-08-29T14:07:00.277Z,59.90
2023-08-29T14:10:02.528Z,63.43
2023-08-29T14:13:05.017Z,64.21
2023-08-29T14:16:07.601Z,65.47
2023-08-29T14:19:11.318Z,65.98
2023-08-29T14:22:13.736Z,67.53
2023-08-29T14:25:15.866Z,69.62
2023-08-29T14:28:18.174Z,72.05
2023-08-29T14:31:24.570Z,71.66
2023-08-29T14:34:27.717Z,73.71
2023-08-29T14:37:29.834Z,74.61
2023-08-29T14:40:32.294Z,74.32
2023-08-29T14:43:34.910Z,75.97
2023-08-29T14:46:37.369Z,79.06
2023-08-29T14:49:40.072Z,79.84
2023-08-29T14:52:42.535Z,82.84
2023-08-29T14:55:45.128Z,85.16
2023-08-29T14:58:47.988Z,89.63
2023-08-29T15:01:50.546Z,93.51
2023-08-29T15:04:53.331Z,96.08
2023-08-29T15:07:55.411Z,99.65
2023-08-29T15:10:58.098Z,100.00
2023-08-29T15:14:00.509Z,100.00
2023-08-29T15:17:03.364Z,100.00
2023-08-29T15:20:11.257Z,100.00
2023-08-29T15:23:14.664Z,100.00
2023-08-29T15:26:16.918Z,100.00
2023-08-29T15:29:19.434Z,100.00
2023-08-29T15:32:21.895Z,100.00
2023-08-29T15:35:24.496Z,100.00
2023-08-29T15:38:27.611Z,100.00
2023-08-29T15:41:30.393Z,100.00
2023-08-29T15:44:34.594Z,100.00
2023-08-29T15:47:37.831Z,100.00
2023-08-29T15:50:40.543Z,100.00
2023-08-29T15:53:43.005Z,100.00
2023-08-29T15:56:45.730Z,100.00
2023-08-29T15:59:48.749Z,100.00
2023-08-29T16:05:53.824Z,100.00
2023-08-29T16:08:58.546Z,100.00
2023-08-29T16:12:02.549Z,100.00
2023-08-29T16:15:05.419Z,100.00
2023-08-29T16:18:08.201Z,100.00
2023-08-29T16:21:11.335Z,100.00
2023-08-29T16:24:13.876Z,100.00
2023-08-29T16:27:17.040Z,100.00
2023-08-29T16:30:19.211Z,100.00
2023-08-29T16:33:21.744Z,100.00
2023-08-29T16:36:24.756Z,100.00
2023-08-29T16:39:31.826Z,100.00
2023-08-29T16:42:36.825Z,100.00
2023-08-29T16:45:39.164Z,100.00
2023-08-29T16:48:41.579Z,100.00
2023-08-29T16:51:43.691Z,100.00
2023-08-29T16:54:46.445Z,100.00
2023-08-29T16:57:49.194Z,100.00
2023-08-29T17:00:51.492Z,100.00
2023-08-29T17:03:54.311Z,100.00
2023-08-29T17:06:56.557Z,100.00
2023-08-29T17:10:01.184Z,100.00
2023-08-29T17:13:03.791Z,100.00
2023-08-29T17:16:06.760Z,100.00
2023-08-29T17:19:11.448Z,100.00
2023-08-29T17:22:16.595Z,100.00
2023-08-29T17:25:19.818Z,100.00
2023-08-29T17:28:24.250Z,100.00
2023-08-29T17:31:26.903Z,100.00
2023-08-29T17:34:30.290Z,100.00
2023-08-29T17:37:38.791Z,100.00
2023-08-29T17:40:42.416Z,100.00
2023-08-29T17:43:47.438Z,100.00
2023-08-29T17:46:51.506Z,100.00
2023-08-29T17:49:55.604Z,100.00
2023-08-29T17:52:58.130Z,100.00
2023-08-29T17:56:00.613Z,100.00
2023-08-29T17:59:06.201Z,100.00
2023-08-29T18:02:08.398Z,100.00
2023-08-29T18:05:13.252Z,100.00
2023-08-29T18:08:17.287Z,100.00
2023-08-29T18:11:20.363Z,100.00
2023-08-29T18:14:23.040Z,100.00
2023-08-29T18:17:26.402Z,100.00
2023-08-29T18:20:29.698Z,100.00
2023-08-29T18:23:33.005Z,100.00
2023-08-29T18:26:36.204Z,100.00
2023-08-29T18:29:39.326Z,100.00
2023-08-29T18:32:42.680Z,100.00
2023-08-29T18:35:47.098Z,100.00
2023-08-29T18:38:50.765Z,100.00
2023-08-29T18:41:54.309Z,100.00
2023-08-29T18:44:57.921Z,100.00
2023-08-29T18:48:00.782Z,100.00
2023-08-29T18:51:04.274Z,100.00
2023-08-29T18:54:07.086Z,100.00
2023-08-29T18:57:11.016Z,100.00
2023-08-29T19:00:14.687Z,100.00
2023-08-29T19:03:20.106Z,100.00
2023-08-29T19:06:23.349Z,100.00
2023-08-29T19:09:26.174Z,100.00
2023-08-29T19:12:28.962Z,100.00
2023-08-29T19:15:32.249Z,100.00
2023-08-29T19:18:37.972Z,100.00
2023-08-29T19:21:42.403Z,100.00
2023-08-29T19:24:47.106Z,100.00
2023-08-29T19:27:50.688Z,100.00
2023-08-29T19:30:56.089Z,100.00
2023-08-29T19:33:58.666Z,100.00
2023-08-29T19:37:02.263Z,100.00
2023-08-29T19:40:06.565Z,100.00
2023-08-29T19:43:10.193Z,100.00
2023-08-29T19:46:13.789Z,100.00
2023-08-29T19:49:18.876Z,100.00
2023-08-29T19:52:21.736Z,100.00
2023-08-29T19:55:26.184Z,100.00
2023-08-29T19:58:29.286Z,100.00
2023-08-29T20:01:33.036Z,100.00
2023-08-29T20:04:35.708Z,100.00
2023-08-29T20:07:38.945Z,100.00
2023-08-29T20:10:44.724Z,100.00
2023-08-29T20:13:48.007Z,100.00
2023-08-29T20:16:53.964Z,100.00
2023-08-29T20:19:57.286Z,100.00
2023-08-29T20:23:00.629Z,100.00
2023-08-29T20:26:03.253Z,100.00
2023-08-29T20:29:05.953Z,100.00
2023-08-29T20:32:08.767Z,100.00
2023-08-29T20:35:12.206Z,100.00
2023-08-29T20:38:15.488Z,100.00
2023-08-29T20:41:18.471Z,100.00
2023-08-29T20:44:21.005Z,100.00
2023-08-29T20:47:23.464Z,99.70
2023-08-29T20:50:26.529Z,99.50
2023-08-29T20:53:35.590Z,99.55
2023-08-29T20:56:38.002Z,99.57
2023-08-29T20:59:40.956Z,99.66
2023-08-29T21:02:43.314Z,99.80
2023-08-29T21:05:50.002Z,99.42
2023-08-29T21:08:52.233Z,99.71
2023-08-29T21:11:57.773Z,99.52
2023-08-29T21:14:59.957Z,99.59
2023-08-29T21:18:02.147Z,99.43
2023-08-29T21:21:04.390Z,99.19
2023-08-29T21:24:06.813Z,98.76
2023-08-29T21:27:09.424Z,98.27
2023-08-29T21:30:12.028Z,98.48
2023-08-29T21:33:15.060Z,98.41
2023-08-29T21:36:17.245Z,98.22
2023-08-29T21:39:19.321Z,97.87
2023-08-29T21:42:21.552Z,97.94
2023-08-29T21:45:25.603Z,97.75
2023-08-29T21:48:29.871Z,97.25
2023-08-29T21:51:32.051Z,97.04
2023-08-29T21:54:34.225Z,96.83
2023-08-29T21:57:36.254Z,96.63
2023-08-29T22:00:39.010Z,96.37
2023-08-29T22:03:42.536Z,96.22
2023-08-29T22:06:44.751Z,96.18
2023-08-29T22:09:46.924Z,96.16
2023-08-29T22:12:49.485Z,96.04
2023-08-29T22:15:52.404Z,95.88
2023-08-29T22:18:54.536Z,94.99
2023-08-29T22:21:56.725Z,95.26
2023-08-29T22:24:58.841Z,94.94
2023-08-29T22:28:00.992Z,95.00
2023-08-29T22:31:03.314Z,94.60
2023-08-29T22:34:05.677Z,94.66
2023-08-29T22:37:07.742Z,94.85
2023-08-29T22:40:10.426Z,95.06
2023-08-29T22:43:12.531Z,95.62
2023-08-29T22:46:14.759Z,96.09
2023-08-29T22:49:17.262Z,96.35
2023-08-29T22:52:19.469Z,96.73
2023-08-29T22:55:25.900Z,96.95
2023-08-29T22:58:29.054Z,97.35
2023-08-29T23:01:31.431Z,97.40
2023-08-29T23:04:52.295Z,97.30
2023-08-29T23:07:54.477Z,97.44
2023-08-29T23:10:56.694Z,97.50
2023-08-29T23:13:58.810Z,97.85
2023-08-29T23:17:00.970Z,97.19
2023-08-29T23:20:09.180Z,96.97
2023-08-29T23:23:11.323Z,96.94
2023-08-29T23:26:13.466Z,96.86
2023-08-29T23:29:15.670Z,97.35
2023-08-29T23:32:18.570Z,96.69
2023-08-29T23:35:21.718Z,96.76
2023-08-29T23:38:23.761Z,96.76
2023-08-29T23:41:27.054Z,96.51
2023-08-29T23:44:29.177Z,96.60
2023-08-29T23:47:31.555Z,96.25
2023-08-29T23:50:33.823Z,96.34
2023-08-29T23:53:36.531Z,96.23
2023-08-29T23:56:38.718Z,95.96
2023-08-29T23:59:40.880Z,96.42
